sensor_id;sensor_type;location;lat;lon;timestamp;P1;durP1;ratioP1;P2;durP2;ratioP2
72109;SDS011;59983;52.010;5.420;2023-08-07T00:01:43;4.78;;;4.28;;
72109;SDS011;59983;52.010;5.420;2023-08-07T00:04:09;9.35;;;5.15;;
72109;SDS011;59983;52.010;5.420;2023-08-07T00:06:36;5.85;;;5.22;;
72109;SDS011;59983;52.010;5.420;2023-08-07T00:09:02;7.70;;;5.70;;
72109;SDS011;59983;52.010;5.420;2023-08-07T00:11:29;11.00;;;6.53;;
72109;SDS011;59983;52.010;5.420;2023-08-07T00:13:55;9.07;;;5.18;;
72109;SDS011;59983;52.010;5.420;2023-08-07T00:16:23;15.07;;;6.03;;
72109;SDS011;59983;52.010;5.420;2023-08-07T00:18:50;10.43;;;5.20;;
72109;SDS011;59983;52.010;5.420;2023-08-07T00:21:18;14.37;;;5.47;;
72109;SDS011;59983;52.010;5.420;2023-08-07T00:23:45;15.88;;;5.45;;
72109;SDS011;59983;52.010;5.420;2023-08-07T00:26:11;7.20;;;5.05;;
72109;SDS011;59983;52.010;5.420;2023-08-07T00:28:38;12.48;;;5.60;;
72109;SDS011;59983;52.010;5.420;2023-08-07T00:31:04;18.35;;;5.13;;
72109;SDS011;59983;52.010;5.420;2023-08-07T00:33:31;9.83;;;5.73;;
72109;SDS011;59983;52.010;5.420;2023-08-07T00:35:58;13.73;;;5.20;;
72109;SDS011;59983;52.010;5.420;2023-08-07T00:38:24;10.38;;;5.68;;
72109;SDS011;59983;52.010;5.420;2023-08-07T00:40:51;13.10;;;5.10;;
72109;SDS011;59983;52.010;5.420;2023-08-07T00:43:17;11.85;;;6.47;;
72109;SDS011;59983;52.010;5.420;2023-08-07T00:45:45;15.70;;;5.67;;
72109;SDS011;59983;52.010;5.420;2023-08-07T00:48:14;7.22;;;5.57;;
72109;SDS011;59983;52.010;5.420;2023-08-07T00:50:42;11.60;;;5.35;;
72109;SDS011;59983;52.010;5.420;2023-08-07T00:53:13;13.68;;;5.72;;
72109;SDS011;59983;52.010;5.420;2023-08-07T00:55:41;7.88;;;4.85;;
72109;SDS011;59983;52.010;5.420;2023-08-07T00:58:08;14.80;;;5.63;;
72109;SDS011;59983;52.010;5.420;2023-08-07T01:00:36;13.07;;;5.20;;
72109;SDS011;59983;52.010;5.420;2023-08-07T01:03:05;12.35;;;5.20;;
72109;SDS011;59983;52.010;5.420;2023-08-07T01:05:33;10.27;;;5.32;;
72109;SDS011;59983;52.010;5.420;2023-08-07T01:08:00;19.67;;;5.57;;
72109;SDS011;59983;52.010;5.420;2023-08-07T01:13:10;13.80;;;6.07;;
72109;SDS011;59983;52.010;5.420;2023-08-07T01:15:45;7.32;;;5.18;;
72109;SDS011;59983;52.010;5.420;2023-08-07T01:18:15;18.60;;;5.03;;
72109;SDS011;59983;52.010;5.420;2023-08-07T01:20:42;10.63;;;4.20;;
72109;SDS011;59983;52.010;5.420;2023-08-07T01:23:08;14.17;;;4.90;;
72109;SDS011;59983;52.010;5.420;2023-08-07T01:25:35;15.43;;;6.07;;
72109;SDS011;59983;52.010;5.420;2023-08-07T01:28:25;16.20;;;4.45;;
72109;SDS011;59983;52.010;5.420;2023-08-07T01:30:55;16.05;;;5.10;;
72109;SDS011;59983;52.010;5.420;2023-08-07T01:33:34;17.98;;;5.70;;
72109;SDS011;59983;52.010;5.420;2023-08-07T01:36:07;13.20;;;4.93;;
72109;SDS011;59983;52.010;5.420;2023-08-07T01:38:37;12.18;;;4.10;;
72109;SDS011;59983;52.010;5.420;2023-08-07T01:41:04;8.18;;;4.22;;
72109;SDS011;59983;52.010;5.420;2023-08-07T01:43:31;7.85;;;4.95;;
72109;SDS011;59983;52.010;5.420;2023-08-07T01:45:58;10.18;;;5.10;;
72109;SDS011;59983;52.010;5.420;2023-08-07T01:48:26;9.27;;;5.17;;
72109;SDS011;59983;52.010;5.420;2023-08-07T01:50:52;7.03;;;4.82;;
72109;SDS011;59983;52.010;5.420;2023-08-07T01:53:20;6.03;;;4.80;;
72109;SDS011;59983;52.010;5.420;2023-08-07T01:55:46;6.88;;;5.45;;
72109;SDS011;59983;52.010;5.420;2023-08-07T01:58:13;7.68;;;5.05;;
72109;SDS011;59983;52.010;5.420;2023-08-07T02:00:39;6.40;;;4.97;;
72109;SDS011;59983;52.010;5.420;2023-08-07T02:03:06;10.70;;;5.65;;
72109;SDS011;59983;52.010;5.420;2023-08-07T02:05:32;17.92;;;6.72;;
72109;SDS011;59983;52.010;5.420;2023-08-07T02:07:59;8.45;;;4.97;;
72109;SDS011;59983;52.010;5.420;2023-08-07T02:10:26;14.60;;;5.40;;
72109;SDS011;59983;52.010;5.420;2023-08-07T02:12:52;10.03;;;5.27;;
72109;SDS011;59983;52.010;5.420;2023-08-07T02:15:19;7.97;;;5.05;;
72109;SDS011;59983;52.010;5.420;2023-08-07T02:17:45;13.43;;;4.57;;
72109;SDS011;59983;52.010;5.420;2023-08-07T02:20:12;16.67;;;4.78;;
72109;SDS011;59983;52.010;5.420;2023-08-07T02:22:38;8.02;;;4.68;;
72109;SDS011;59983;52.010;5.420;2023-08-07T02:25:05;12.07;;;5.37;;
72109;SDS011;59983;52.010;5.420;2023-08-07T02:27:32;6.68;;;4.28;;
72109;SDS011;59983;52.010;5.420;2023-08-07T02:29:59;7.10;;;4.72;;
72109;SDS011;59983;52.010;5.420;2023-08-07T02:32:25;7.13;;;4.68;;
72109;SDS011;59983;52.010;5.420;2023-08-07T02:34:52;8.25;;;4.72;;
72109;SDS011;59983;52.010;5.420;2023-08-07T02:37:18;6.80;;;4.40;;
72109;SDS011;59983;52.010;5.420;2023-08-07T02:39:47;8.70;;;5.30;;
72109;SDS011;59983;52.010;5.420;2023-08-07T02:42:13;9.38;;;4.93;;
72109;SDS011;59983;52.010;5.420;2023-08-07T02:44:40;9.90;;;4.90;;
72109;SDS011;59983;52.010;5.420;2023-08-07T02:47:06;12.88;;;5.22;;
72109;SDS011;59983;52.010;5.420;2023-08-07T02:49:33;18.47;;;5.53;;
72109;SDS011;59983;52.010;5.420;2023-08-07T02:51:59;11.68;;;5.10;;
72109;SDS011;59983;52.010;5.420;2023-08-07T02:54:26;11.20;;;4.90;;
72109;SDS011;59983;52.010;5.420;2023-08-07T02:56:53;10.73;;;5.00;;
72109;SDS011;59983;52.010;5.420;2023-08-07T02:59:19;11.40;;;5.50;;
72109;SDS011;59983;52.010;5.420;2023-08-07T03:01:46;21.60;;;5.73;;
72109;SDS011;59983;52.010;5.420;2023-08-07T03:04:13;10.38;;;5.07;;
72109;SDS011;59983;52.010;5.420;2023-08-07T03:06:39;6.72;;;5.35;;
72109;SDS011;59983;52.010;5.420;2023-08-07T03:09:06;7.38;;;5.47;;
72109;SDS011;59983;52.010;5.420;2023-08-07T03:11:32;18.20;;;6.18;;
72109;SDS011;59983;52.010;5.420;2023-08-07T03:13:59;12.77;;;5.60;;
72109;SDS011;59983;52.010;5.420;2023-08-07T03:16:25;11.32;;;5.53;;
72109;SDS011;59983;52.010;5.420;2023-08-07T03:18:52;8.10;;;4.82;;
72109;SDS011;59983;52.010;5.420;2023-08-07T03:21:19;12.30;;;5.40;;
72109;SDS011;59983;52.010;5.420;2023-08-07T03:23:45;14.43;;;5.28;;
72109;SDS011;59983;52.010;5.420;2023-08-07T03:26:12;12.47;;;5.23;;
72109;SDS011;59983;52.010;5.420;2023-08-07T03:28:42;10.50;;;5.38;;
72109;SDS011;59983;52.010;5.420;2023-08-07T03:31:08;13.38;;;5.38;;
72109;SDS011;59983;52.010;5.420;2023-08-07T03:33:35;10.57;;;5.72;;
72109;SDS011;59983;52.010;5.420;2023-08-07T03:36:01;8.77;;;5.75;;
72109;SDS011;59983;52.010;5.420;2023-08-07T03:38:28;15.57;;;5.27;;
72109;SDS011;59983;52.010;5.420;2023-08-07T03:40:54;9.10;;;5.55;;
72109;SDS011;59983;52.010;5.420;2023-08-07T03:43:21;10.50;;;6.13;;
72109;SDS011;59983;52.010;5.420;2023-08-07T03:45:47;15.40;;;5.82;;
72109;SDS011;59983;52.010;5.420;2023-08-07T03:48:19;13.52;;;6.30;;
72109;SDS011;59983;52.010;5.420;2023-08-07T03:50:46;7.90;;;6.10;;
72109;SDS011;59983;52.010;5.420;2023-08-07T03:53:12;11.93;;;5.40;;
72109;SDS011;59983;52.010;5.420;2023-08-07T03:55:39;10.30;;;5.85;;
72109;SDS011;59983;52.010;5.420;2023-08-07T03:58:07;8.93;;;4.97;;
72109;SDS011;59983;52.010;5.420;2023-08-07T04:00:34;8.23;;;5.18;;
72109;SDS011;59983;52.010;5.420;2023-08-07T04:03:00;6.67;;;4.50;;
72109;SDS011;59983;52.010;5.420;2023-08-07T04:05:27;7.75;;;4.25;;
72109;SDS011;59983;52.010;5.420;2023-08-07T04:07:53;9.43;;;5.10;;
72109;SDS011;59983;52.010;5.420;2023-08-07T04:10:20;6.32;;;4.32;;
72109;SDS011;59983;52.010;5.420;2023-08-07T04:12:46;7.40;;;4.63;;
72109;SDS011;59983;52.010;5.420;2023-08-07T04:15:13;9.10;;;4.70;;
72109;SDS011;59983;52.010;5.420;2023-08-07T04:17:40;9.57;;;5.03;;
72109;SDS011;59983;52.010;5.420;2023-08-07T04:20:07;6.75;;;4.03;;
72109;SDS011;59983;52.010;5.420;2023-08-07T04:22:34;7.28;;;4.50;;
72109;SDS011;59983;52.010;5.420;2023-08-07T04:25:01;9.23;;;4.20;;
72109;SDS011;59983;52.010;5.420;2023-08-07T04:27:28;9.77;;;4.70;;
72109;SDS011;59983;52.010;5.420;2023-08-07T04:29:55;7.53;;;5.22;;
72109;SDS011;59983;52.010;5.420;2023-08-07T04:32:21;10.75;;;5.78;;
72109;SDS011;59983;52.010;5.420;2023-08-07T04:34:51;12.07;;;6.20;;
72109;SDS011;59983;52.010;5.420;2023-08-07T04:37:18;12.70;;;5.93;;
72109;SDS011;59983;52.010;5.420;2023-08-07T04:39:44;12.17;;;5.40;;
72109;SDS011;59983;52.010;5.420;2023-08-07T04:42:11;7.43;;;5.22;;
72109;SDS011;59983;52.010;5.420;2023-08-07T04:44:37;10.65;;;5.53;;
72109;SDS011;59983;52.010;5.420;2023-08-07T04:47:04;14.93;;;6.43;;
72109;SDS011;59983;52.010;5.420;2023-08-07T04:49:31;13.68;;;5.97;;
72109;SDS011;59983;52.010;5.420;2023-08-07T04:51:58;12.47;;;6.00;;
72109;SDS011;59983;52.010;5.420;2023-08-07T04:54:32;13.77;;;5.82;;
72109;SDS011;59983;52.010;5.420;2023-08-07T04:56:58;9.65;;;4.78;;
72109;SDS011;59983;52.010;5.420;2023-08-07T04:59:25;13.13;;;5.28;;
72109;SDS011;59983;52.010;5.420;2023-08-07T05:01:52;7.13;;;5.20;;
72109;SDS011;59983;52.010;5.420;2023-08-07T05:04:18;10.93;;;5.60;;
72109;SDS011;59983;52.010;5.420;2023-08-07T05:06:45;14.20;;;5.03;;
72109;SDS011;59983;52.010;5.420;2023-08-07T05:09:11;7.20;;;5.43;;
72109;SDS011;59983;52.010;5.420;2023-08-07T05:11:38;16.33;;;5.50;;
72109;SDS011;59983;52.010;5.420;2023-08-07T05:14:05;9.13;;;4.85;;
72109;SDS011;59983;52.010;5.420;2023-08-07T05:16:32;9.33;;;5.27;;
72109;SDS011;59983;52.010;5.420;2023-08-07T05:18:58;9.98;;;5.63;;
72109;SDS011;59983;52.010;5.420;2023-08-07T05:21:25;10.82;;;5.35;;
72109;SDS011;59983;52.010;5.420;2023-08-07T05:23:51;7.55;;;5.15;;
72109;SDS011;59983;52.010;5.420;2023-08-07T05:26:21;14.10;;;5.35;;
72109;SDS011;59983;52.010;5.420;2023-08-07T05:28:48;8.43;;;4.77;;
72109;SDS011;59983;52.010;5.420;2023-08-07T05:31:14;13.13;;;5.53;;
72109;SDS011;59983;52.010;5.420;2023-08-07T05:33:41;11.80;;;6.03;;
72109;SDS011;59983;52.010;5.420;2023-08-07T05:36:07;16.90;;;5.85;;
72109;SDS011;59983;52.010;5.420;2023-08-07T05:38:34;14.32;;;6.57;;
72109;SDS011;59983;52.010;5.420;2023-08-07T05:41:01;12.97;;;5.10;;
72109;SDS011;59983;52.010;5.420;2023-08-07T05:43:27;13.20;;;4.72;;
72109;SDS011;59983;52.010;5.420;2023-08-07T05:45:54;16.90;;;6.00;;
72109;SDS011;59983;52.010;5.420;2023-08-07T05:48:20;14.48;;;5.30;;
72109;SDS011;59983;52.010;5.420;2023-08-07T05:50:47;10.10;;;6.07;;
72109;SDS011;59983;52.010;5.420;2023-08-07T05:53:13;11.17;;;5.40;;
72109;SDS011;59983;52.010;5.420;2023-08-07T05:55:40;9.15;;;4.47;;
72109;SDS011;59983;52.010;5.420;2023-08-07T05:58:10;6.82;;;4.75;;
72109;SDS011;59983;52.010;5.420;2023-08-07T06:00:36;8.15;;;5.13;;
72109;SDS011;59983;52.010;5.420;2023-08-07T06:03:03;9.15;;;4.57;;
72109;SDS011;59983;52.010;5.420;2023-08-07T06:05:30;7.47;;;4.60;;
72109;SDS011;59983;52.010;5.420;2023-08-07T06:07:57;10.73;;;5.93;;
72109;SDS011;59983;52.010;5.420;2023-08-07T06:10:23;7.85;;;4.68;;
72109;SDS011;59983;52.010;5.420;2023-08-07T06:12:50;6.05;;;4.45;;
72109;SDS011;59983;52.010;5.420;2023-08-07T06:15:17;6.75;;;4.65;;
72109;SDS011;59983;52.010;5.420;2023-08-07T06:17:43;5.97;;;5.43;;
72109;SDS011;59983;52.010;5.420;2023-08-07T06:20:10;7.82;;;4.63;;
72109;SDS011;59983;52.010;5.420;2023-08-07T06:22:38;8.73;;;5.47;;
72109;SDS011;59983;52.010;5.420;2023-08-07T06:25:04;11.57;;;5.43;;
72109;SDS011;59983;52.010;5.420;2023-08-07T06:27:33;7.88;;;5.85;;
72109;SDS011;59983;52.010;5.420;2023-08-07T06:29:59;14.90;;;5.73;;
72109;SDS011;59983;52.010;5.420;2023-08-07T06:32:26;11.10;;;5.28;;
72109;SDS011;59983;52.010;5.420;2023-08-07T06:34:52;13.23;;;5.10;;
72109;SDS011;59983;52.010;5.420;2023-08-07T06:37:19;12.38;;;5.15;;
72109;SDS011;59983;52.010;5.420;2023-08-07T06:39:46;11.98;;;5.78;;
72109;SDS011;59983;52.010;5.420;2023-08-07T06:42:14;12.03;;;5.80;;
72109;SDS011;59983;52.010;5.420;2023-08-07T06:44:41;12.27;;;6.00;;
72109;SDS011;59983;52.010;5.420;2023-08-07T06:47:07;12.82;;;5.88;;
72109;SDS011;59983;52.010;5.420;2023-08-07T06:49:36;13.95;;;6.05;;
72109;SDS011;59983;52.010;5.420;2023-08-07T06:52:02;11.90;;;5.57;;
72109;SDS011;59983;52.010;5.420;2023-08-07T06:54:29;9.23;;;6.10;;
72109;SDS011;59983;52.010;5.420;2023-08-07T06:56:56;11.60;;;5.45;;
72109;SDS011;59983;52.010;5.420;2023-08-07T06:59:22;5.80;;;5.10;;
72109;SDS011;59983;52.010;5.420;2023-08-07T07:01:51;17.05;;;5.80;;
72109;SDS011;59983;52.010;5.420;2023-08-07T07:04:18;21.55;;;6.20;;
72109;SDS011;59983;52.010;5.420;2023-08-07T07:06:44;12.77;;;5.90;;
72109;SDS011;59983;52.010;5.420;2023-08-07T07:09:11;7.50;;;5.20;;
72109;SDS011;59983;52.010;5.420;2023-08-07T07:11:42;7.60;;;5.90;;
72109;SDS011;59983;52.010;5.420;2023-08-07T07:14:10;11.05;;;5.63;;
72109;SDS011;59983;52.010;5.420;2023-08-07T07:16:37;7.53;;;5.90;;
72109;SDS011;59983;52.010;5.420;2023-08-07T07:19:04;7.27;;;5.10;;
72109;SDS011;59983;52.010;5.420;2023-08-07T07:21:34;9.25;;;5.20;;
72109;SDS011;59983;52.010;5.420;2023-08-07T07:24:01;13.32;;;5.38;;
72109;SDS011;59983;52.010;5.420;2023-08-07T07:26:28;13.40;;;5.80;;
72109;SDS011;59983;52.010;5.420;2023-08-07T07:28:55;14.32;;;5.80;;
72109;SDS011;59983;52.010;5.420;2023-08-07T07:31:21;8.17;;;4.47;;
72109;SDS011;59983;52.010;5.420;2023-08-07T07:33:48;12.40;;;5.68;;
72109;SDS011;59983;52.010;5.420;2023-08-07T07:36:18;9.18;;;5.22;;
72109;SDS011;59983;52.010;5.420;2023-08-07T07:38:47;10.73;;;5.63;;
72109;SDS011;59983;52.010;5.420;2023-08-07T07:41:14;15.23;;;6.07;;
72109;SDS011;59983;52.010;5.420;2023-08-07T07:43:41;11.30;;;5.13;;
72109;SDS011;59983;52.010;5.420;2023-08-07T07:46:09;17.40;;;5.50;;
72109;SDS011;59983;52.010;5.420;2023-08-07T07:48:36;7.97;;;5.53;;
72109;SDS011;59983;52.010;5.420;2023-08-07T07:51:03;10.10;;;6.07;;
72109;SDS011;59983;52.010;5.420;2023-08-07T07:53:30;9.25;;;5.22;;
72109;SDS011;59983;52.010;5.420;2023-08-07T07:55:57;13.57;;;5.87;;
72109;SDS011;59983;52.010;5.420;2023-08-07T07:58:24;12.20;;;6.53;;
72109;SDS011;59983;52.010;5.420;2023-08-07T08:00:50;8.18;;;5.45;;
72109;SDS011;59983;52.010;5.420;2023-08-07T08:03:20;11.75;;;6.25;;
72109;SDS011;59983;52.010;5.420;2023-08-07T08:05:51;7.85;;;4.97;;
72109;SDS011;59983;52.010;5.420;2023-08-07T08:08:18;8.37;;;6.10;;
72109;SDS011;59983;52.010;5.420;2023-08-07T08:10:45;12.88;;;4.90;;
72109;SDS011;59983;52.010;5.420;2023-08-07T08:13:17;13.88;;;5.65;;
72109;SDS011;59983;52.010;5.420;2023-08-07T08:15:44;13.77;;;5.47;;
72109;SDS011;59983;52.010;5.420;2023-08-07T08:18:11;12.80;;;4.50;;
72109;SDS011;59983;52.010;5.420;2023-08-07T08:20:38;13.33;;;5.70;;
72109;SDS011;59983;52.010;5.420;2023-08-07T08:23:05;12.40;;;4.90;;
72109;SDS011;59983;52.010;5.420;2023-08-07T08:25:32;11.85;;;4.03;;
72109;SDS011;59983;52.010;5.420;2023-08-07T08:28:01;8.23;;;3.80;;
72109;SDS011;59983;52.010;5.420;2023-08-07T08:30:28;9.73;;;4.78;;
72109;SDS011;59983;52.010;5.420;2023-08-07T08:32:55;10.27;;;4.50;;
72109;SDS011;59983;52.010;5.420;2023-08-07T08:35:22;11.52;;;4.70;;
72109;SDS011;59983;52.010;5.420;2023-08-07T08:37:48;10.70;;;4.45;;
72109;SDS011;59983;52.010;5.420;2023-08-07T08:40:15;8.93;;;5.35;;
72109;SDS011;59983;52.010;5.420;2023-08-07T08:42:43;9.75;;;4.70;;
72109;SDS011;59983;52.010;5.420;2023-08-07T08:45:12;11.13;;;4.63;;
72109;SDS011;59983;52.010;5.420;2023-08-07T08:47:43;6.80;;;3.85;;
72109;SDS011;59983;52.010;5.420;2023-08-07T08:50:12;6.63;;;4.35;;
72109;SDS011;59983;52.010;5.420;2023-08-07T08:52:42;9.07;;;4.90;;
72109;SDS011;59983;52.010;5.420;2023-08-07T08:55:11;12.18;;;4.93;;
72109;SDS011;59983;52.010;5.420;2023-08-07T08:57:39;9.63;;;4.10;;
72109;SDS011;59983;52.010;5.420;2023-08-07T09:00:06;11.93;;;4.20;;
72109;SDS011;59983;52.010;5.420;2023-08-07T09:02:51;15.98;;;4.28;;
72109;SDS011;59983;52.010;5.420;2023-08-07T09:05:19;9.10;;;3.63;;
72109;SDS011;59983;52.010;5.420;2023-08-07T09:07:47;11.80;;;3.53;;
72109;SDS011;59983;52.010;5.420;2023-08-07T09:10:14;12.13;;;4.70;;
72109;SDS011;59983;52.010;5.420;2023-08-07T09:12:45;9.35;;;4.43;;
72109;SDS011;59983;52.010;5.420;2023-08-07T09:15:33;9.57;;;4.03;;
72109;SDS011;59983;52.010;5.420;2023-08-07T09:18:03;8.68;;;4.60;;
72109;SDS011;59983;52.010;5.420;2023-08-07T09:20:34;8.25;;;3.50;;
72109;SDS011;59983;52.010;5.420;2023-08-07T09:23:03;6.80;;;3.90;;
72109;SDS011;59983;52.010;5.420;2023-08-07T09:25:30;9.25;;;3.88;;
72109;SDS011;59983;52.010;5.420;2023-08-07T09:27:58;9.73;;;3.28;;
72109;SDS011;59983;52.010;5.420;2023-08-07T09:30:28;6.47;;;3.17;;
72109;SDS011;59983;52.010;5.420;2023-08-07T09:32:59;8.45;;;3.90;;
72109;SDS011;59983;52.010;5.420;2023-08-07T09:35:27;8.07;;;3.73;;
72109;SDS011;59983;52.010;5.420;2023-08-07T09:37:59;8.30;;;3.58;;
72109;SDS011;59983;52.010;5.420;2023-08-07T09:40:25;6.35;;;3.38;;
72109;SDS011;59983;52.010;5.420;2023-08-07T09:42:53;10.73;;;3.58;;
72109;SDS011;59983;52.010;5.420;2023-08-07T09:47:47;6.60;;;4.53;;
72109;SDS011;59983;52.010;5.420;2023-08-07T09:50:23;7.80;;;3.55;;
72109;SDS011;59983;52.010;5.420;2023-08-07T09:52:50;8.23;;;3.90;;
72109;SDS011;59983;52.010;5.420;2023-08-07T09:55:16;6.72;;;3.33;;
72109;SDS011;59983;52.010;5.420;2023-08-07T09:57:43;7.63;;;3.65;;
72109;SDS011;59983;52.010;5.420;2023-08-07T10:00:10;9.03;;;3.93;;
72109;SDS011;59983;52.010;5.420;2023-08-07T10:02:38;5.82;;;4.05;;
72109;SDS011;59983;52.010;5.420;2023-08-07T10:05:06;22.92;;;4.63;;
72109;SDS011;59983;52.010;5.420;2023-08-07T10:07:34;7.85;;;3.17;;
72109;SDS011;59983;52.010;5.420;2023-08-07T10:10:03;8.95;;;3.72;;
72109;SDS011;59983;52.010;5.420;2023-08-07T10:12:30;6.30;;;3.57;;
72109;SDS011;59983;52.010;5.420;2023-08-07T10:14:58;9.07;;;3.88;;
72109;SDS011;59983;52.010;5.420;2023-08-07T10:17:26;9.82;;;3.22;;
72109;SDS011;59983;52.010;5.420;2023-08-07T10:19:53;6.85;;;3.35;;
72109;SDS011;59983;52.010;5.420;2023-08-07T10:22:20;8.20;;;3.13;;
72109;SDS011;59983;52.010;5.420;2023-08-07T10:24:51;9.27;;;3.93;;
72109;SDS011;59983;52.010;5.420;2023-08-07T10:27:20;7.45;;;3.25;;
72109;SDS011;59983;52.010;5.420;2023-08-07T10:29:49;10.57;;;4.20;;
72109;SDS011;59983;52.010;5.420;2023-08-07T10:32:18;8.10;;;4.03;;
72109;SDS011;59983;52.010;5.420;2023-08-07T10:34:51;5.20;;;3.60;;
72109;SDS011;59983;52.010;5.420;2023-08-07T10:40:11;11.25;;;4.68;;
72109;SDS011;59983;52.010;5.420;2023-08-07T10:45:21;9.52;;;5.72;;
72109;SDS011;59983;52.010;5.420;2023-08-07T10:50:31;6.50;;;4.73;;
72109;SDS011;59983;52.010;5.420;2023-08-07T10:53:02;9.45;;;4.40;;
72109;SDS011;59983;52.010;5.420;2023-08-07T10:55:44;8.43;;;4.18;;
72109;SDS011;59983;52.010;5.420;2023-08-07T10:58:24;5.68;;;3.92;;
72109;SDS011;59983;52.010;5.420;2023-08-07T11:03:56;8.27;;;3.90;;
72109;SDS011;59983;52.010;5.420;2023-08-07T11:06:24;8.50;;;4.15;;
72109;SDS011;59983;52.010;5.420;2023-08-07T11:08:58;13.18;;;4.40;;
72109;SDS011;59983;52.010;5.420;2023-08-07T11:11:26;9.68;;;3.90;;
72109;SDS011;59983;52.010;5.420;2023-08-07T11:13:53;7.72;;;3.30;;
72109;SDS011;59983;52.010;5.420;2023-08-07T11:16:20;5.43;;;3.10;;
72109;SDS011;59983;52.010;5.420;2023-08-07T11:18:48;4.40;;;3.20;;
72109;SDS011;59983;52.010;5.420;2023-08-07T11:21:15;4.70;;;2.53;;
72109;SDS011;59983;52.010;5.420;2023-08-07T11:23:41;6.47;;;3.38;;
72109;SDS011;59983;52.010;5.420;2023-08-07T11:26:10;6.13;;;2.97;;
72109;SDS011;59983;52.010;5.420;2023-08-07T11:28:37;6.43;;;3.10;;
72109;SDS011;59983;52.010;5.420;2023-08-07T11:31:04;4.82;;;3.33;;
72109;SDS011;59983;52.010;5.420;2023-08-07T11:33:31;12.02;;;3.80;;
72109;SDS011;59983;52.010;5.420;2023-08-07T11:35:57;5.10;;;3.00;;
72109;SDS011;59983;52.010;5.420;2023-08-07T11:38:32;5.70;;;3.17;;
72109;SDS011;59983;52.010;5.420;2023-08-07T11:41:06;8.10;;;3.37;;
72109;SDS011;59983;52.010;5.420;2023-08-07T11:43:34;4.88;;;3.83;;
72109;SDS011;59983;52.010;5.420;2023-08-07T11:46:01;7.68;;;4.40;;
72109;SDS011;59983;52.010;5.420;2023-08-07T11:48:36;7.93;;;4.18;;
72109;SDS011;59983;52.010;5.420;2023-08-07T11:51:04;5.38;;;3.47;;
72109;SDS011;59983;52.010;5.420;2023-08-07T11:53:34;8.60;;;3.70;;
72109;SDS011;59983;52.010;5.420;2023-08-07T11:56:03;8.32;;;4.22;;
72109;SDS011;59983;52.010;5.420;2023-08-07T11:58:34;8.00;;;4.18;;
72109;SDS011;59983;52.010;5.420;2023-08-07T12:01:12;7.03;;;3.40;;
72109;SDS011;59983;52.010;5.420;2023-08-07T12:03:54;6.00;;;3.50;;
72109;SDS011;59983;52.010;5.420;2023-08-07T12:06:35;6.17;;;3.80;;
72109;SDS011;59983;52.010;5.420;2023-08-07T12:09:03;9.30;;;3.95;;
72109;SDS011;59983;52.010;5.420;2023-08-07T12:11:29;10.15;;;3.92;;
72109;SDS011;59983;52.010;5.420;2023-08-07T12:13:59;6.78;;;3.60;;
72109;SDS011;59983;52.010;5.420;2023-08-07T12:16:26;8.55;;;5.05;;
72109;SDS011;59983;52.010;5.420;2023-08-07T12:18:58;7.40;;;3.00;;
72109;SDS011;59983;52.010;5.420;2023-08-07T12:21:25;6.05;;;3.50;;
72109;SDS011;59983;52.010;5.420;2023-08-07T12:23:54;8.20;;;3.08;;
72109;SDS011;59983;52.010;5.420;2023-08-07T12:26:21;6.47;;;4.13;;
72109;SDS011;59983;52.010;5.420;2023-08-07T12:28:48;4.85;;;3.20;;
72109;SDS011;59983;52.010;5.420;2023-08-07T12:31:15;8.00;;;3.87;;
72109;SDS011;59983;52.010;5.420;2023-08-07T12:33:44;4.80;;;2.78;;
72109;SDS011;59983;52.010;5.420;2023-08-07T12:36:10;8.57;;;2.65;;
72109;SDS011;59983;52.010;5.420;2023-08-07T12:38:42;5.93;;;2.90;;
72109;SDS011;59983;52.010;5.420;2023-08-07T12:41:09;7.07;;;2.63;;
72109;SDS011;59983;52.010;5.420;2023-08-07T12:43:55;6.90;;;3.03;;
72109;SDS011;59983;52.010;5.420;2023-08-07T12:46:22;4.75;;;3.13;;
72109;SDS011;59983;52.010;5.420;2023-08-07T12:48:51;6.70;;;2.65;;
72109;SDS011;59983;52.010;5.420;2023-08-07T12:51:18;10.60;;;2.90;;
72109;SDS011;59983;52.010;5.420;2023-08-07T12:53:44;7.82;;;2.92;;
72109;SDS011;59983;52.010;5.420;2023-08-07T12:56:11;4.83;;;2.47;;
72109;SDS011;59983;52.010;5.420;2023-08-07T12:58:38;3.13;;;2.60;;
72109;SDS011;59983;52.010;5.420;2023-08-07T13:01:08;3.00;;;2.33;;
72109;SDS011;59983;52.010;5.420;2023-08-07T13:03:35;3.70;;;2.40;;
72109;SDS011;59983;52.010;5.420;2023-08-07T13:06:02;6.10;;;2.28;;
72109;SDS011;59983;52.010;5.420;2023-08-07T13:08:31;3.23;;;2.40;;
72109;SDS011;59983;52.010;5.420;2023-08-07T13:10:59;4.00;;;2.28;;
72109;SDS011;59983;52.010;5.420;2023-08-07T13:13:26;3.20;;;2.40;;
72109;SDS011;59983;52.010;5.420;2023-08-07T13:15:54;6.35;;;2.33;;
72109;SDS011;59983;52.010;5.420;2023-08-07T13:18:21;5.82;;;1.85;;
72109;SDS011;59983;52.010;5.420;2023-08-07T13:20:48;3.33;;;2.27;;
72109;SDS011;59983;52.010;5.420;2023-08-07T13:23:14;4.00;;;2.25;;
72109;SDS011;59983;52.010;5.420;2023-08-07T13:25:41;3.05;;;1.90;;
72109;SDS011;59983;52.010;5.420;2023-08-07T13:28:07;8.07;;;2.00;;
72109;SDS011;59983;52.010;5.420;2023-08-07T13:30:34;2.97;;;1.80;;
72109;SDS011;59983;52.010;5.420;2023-08-07T13:33:03;2.37;;;2.17;;
72109;SDS011;59983;52.010;5.420;2023-08-07T13:35:30;2.47;;;2.28;;
72109;SDS011;59983;52.010;5.420;2023-08-07T13:37:57;6.88;;;2.17;;
72109;SDS011;59983;52.010;5.420;2023-08-07T13:40:24;5.20;;;2.38;;
72109;SDS011;59983;52.010;5.420;2023-08-07T13:42:50;5.10;;;1.90;;
72109;SDS011;59983;52.010;5.420;2023-08-07T13:45:17;8.00;;;2.73;;
72109;SDS011;59983;52.010;5.420;2023-08-07T13:47:44;2.22;;;1.75;;
72109;SDS011;59983;52.010;5.420;2023-08-07T13:50:10;1.98;;;1.80;;
72109;SDS011;59983;52.010;5.420;2023-08-07T13:52:39;2.70;;;1.65;;
72109;SDS011;59983;52.010;5.420;2023-08-07T13:55:06;1.92;;;1.42;;
72109;SDS011;59983;52.010;5.420;2023-08-07T13:57:35;2.73;;;1.50;;
72109;SDS011;59983;52.010;5.420;2023-08-07T14:00:02;2.88;;;1.63;;
72109;SDS011;59983;52.010;5.420;2023-08-07T14:02:29;2.83;;;1.60;;
72109;SDS011;59983;52.010;5.420;2023-08-07T14:04:57;3.05;;;2.08;;
72109;SDS011;59983;52.010;5.420;2023-08-07T14:07:24;2.13;;;1.73;;
72109;SDS011;59983;52.010;5.420;2023-08-07T14:09:51;3.70;;;2.43;;
72109;SDS011;59983;52.010;5.420;2023-08-07T14:12:17;8.18;;;2.40;;
72109;SDS011;59983;52.010;5.420;2023-08-07T14:14:44;3.53;;;2.17;;
72109;SDS011;59983;52.010;5.420;2023-08-07T14:17:10;4.28;;;2.20;;
72109;SDS011;59983;52.010;5.420;2023-08-07T14:19:37;2.50;;;2.30;;
72109;SDS011;59983;52.010;5.420;2023-08-07T14:22:03;6.00;;;1.73;;
72109;SDS011;59983;52.010;5.420;2023-08-07T14:24:30;5.50;;;2.40;;
72109;SDS011;59983;52.010;5.420;2023-08-07T14:26:57;4.88;;;2.30;;
72109;SDS011;59983;52.010;5.420;2023-08-07T14:29:23;3.05;;;2.00;;
72109;SDS011;59983;52.010;5.420;2023-08-07T14:31:50;4.88;;;2.03;;
72109;SDS011;59983;52.010;5.420;2023-08-07T14:34:16;2.90;;;2.27;;
72109;SDS011;59983;52.010;5.420;2023-08-07T14:36:43;7.03;;;2.90;;
72109;SDS011;59983;52.010;5.420;2023-08-07T14:39:10;3.17;;;2.20;;
72109;SDS011;59983;52.010;5.420;2023-08-07T14:41:37;3.25;;;2.17;;
72109;SDS011;59983;52.010;5.420;2023-08-07T14:44:03;2.50;;;1.80;;
72109;SDS011;59983;52.010;5.420;2023-08-07T14:46:30;5.43;;;2.10;;
72109;SDS011;59983;52.010;5.420;2023-08-07T14:48:56;3.92;;;2.30;;
72109;SDS011;59983;52.010;5.420;2023-08-07T14:51:23;3.22;;;2.17;;
72109;SDS011;59983;52.010;5.420;2023-08-07T14:53:50;3.00;;;2.20;;
72109;SDS011;59983;52.010;5.420;2023-08-07T14:56:16;3.92;;;2.28;;
72109;SDS011;59983;52.010;5.420;2023-08-07T14:58:43;3.57;;;2.30;;
72109;SDS011;59983;52.010;5.420;2023-08-07T15:01:09;2.67;;;2.25;;
72109;SDS011;59983;52.010;5.420;2023-08-07T15:03:36;2.85;;;2.20;;